Current Conditions - Area Ports

 

CYWH - Victoria Harbour, British Columbia, Canada
Distance from station: WSW 10km
Updated: 07/24/2017 7:00pm
Few Clouds
Few Clouds
 Wind from calm
Wind: Calm
Temperature: 19°C
Dew Point: 11°C
Humidity: 60%
Barometer: 1014.2 hPa
Clouds: Few Clouds
Visibility: 24 km
Cloud details: Few Clouds 6706 m
2017/07/25 02:00 CYWH 250200Z 00000KT 15SM FEW220 19/11 A2995 RMK CI1 CI TR SLP142 DENSITY ALT 500FT
KFHR - Friday Harbor, Washington, USA
Distance from station: ENE 19km
Updated: 07/24/2017 6:53pm
Clear
Clear
 Wind from calm
Wind: Calm
Temperature: 24°C
Dew Point: 11°C
Humidity: 44%
Barometer: 1014.6 hPa
Clouds: Clear
Visibility: 16 km
2017/07/25 01:53 KFHR 250153Z AUTO 00000KT 10SM CLR 24/11 A2996 RMK AO2 SLP144 T02390111
 
KORS - Eastsound/Orcas, Washington, USA
Distance from station: NE 38km
Updated: 07/24/2017 7:35pm
Clear
Clear
 Wind from calm
Wind: Calm
Temperature: 20°C
Dew Point: 13°C
Humidity: 64%
Barometer: 1014.2 hPa
Clouds: Clear
Visibility: 16 km
2017/07/25 02:35 KORS 250235Z AUTO 00000KT 10SM CLR 20/13 A2995 RMK AO2
KNUW - Whidbey Is. Nas, Washington, USA
Distance from station: ESE 47km
Updated: 07/24/2017 6:56pm
Partly cloudy
Partly cloudy
 Wind from W
Wind: W 11 km/h
Temperature: 18°C
Dew Point: 10°C
Humidity: 60%
Barometer: 1015.6 hPa
Clouds: Partly cloudy
Visibility: 16 km
Cloud details: Few Clouds 4877 m
Partly cloudy 7620 m
2017/07/25 01:56 KNUW 250156Z 28006KT 10SM FEW160 SCT250 18/10 A2999 RMK AO2 SLP154 T01830100 $
 
CWEZ - Saturna Isl (map, British Columbia, Canada
Distance from station: NNE 40km
Updated: 07/24/2017 7:00pm

 Wind from W
Wind: W 6 km/h
Temperature: 20°C
Dew Point: 12°C
Humidity: 60%
2017/07/25 02:00 CWEZ 250200Z AUTO 28003KT 20/12 RMK AO1 SLP138 T01990122 57014
CYCD - Nanaimo Airport, British Columbia, Canada
Distance from station: NW 80km
Updated: 07/24/2017 7:00pm
Clear
Clear
 Wind from NNE
Wind: NNE 7 km/h
Temperature: 26°C
Dew Point: 10°C
Humidity: 37%
Barometer: 1014.2 hPa
Clouds: Clear
Visibility: 48 km
2017/07/25 02:00 CYCD 250200Z 03004KT 360V070 30SM SKC 26/10 A2995 RMK SLP142 DENSITY ALT 1400FT
 
CWVF - Sand Heads (ls), British Columbia, Canada
Distance from station: N 72km
Updated: 07/24/2017 7:45pm

 Wind from WNW
Wind: WNW 31 km/h
Temperature: 20°C
2017/07/25 02:45 CWVF 250245Z AUTO 30017KT 20/ RMK AO1 PK WND 29020/0222 T0197
CWQK - Race Rocks Autob, British Columbia, Canada
Distance from station: SW 26km
Updated: 07/24/2017 7:00pm

 Wind from W
Wind: W 41 km/h
Temperature: 14°C
Dew Point: 11°C
Humidity: 82%
2017/07/25 02:00 CWQK 250200Z AUTO 26022KT 14/11 RMK AO1 PK WND 27025/0110 SLP142 T01400109 56014
 
CWSP - Sheringham Autob, British Columbia, Canada
Distance from station: W 49km
Updated: 07/24/2017 7:00pm

 Wind from WNW
Wind: WNW 30 km/h
Temperature: 17°C
Dew Point: 12°C
Humidity: 73%
2017/07/25 02:00 CWSP 250200Z AUTO 29016KT 17/12 RMK AO1 PK WND 30021/0139 SLP145 T01690115 56013